Погода Тимбирасна 2 недели

Мараньян, Бразилия

19 июня-02 июля
  • 19июня
    Сегодня
    +23°
    +32°
    Небольшая облачность
    ВремяПогодаТемператураВлажностьДавлениеВетер, м/сВероятность осадков
    00:00Практически безоблачно+26°C77 %754 мм1.4 м/с5 %
    03:00Облачно с прояснениями+25°C80 %754 мм1.9 м/с5 %
    06:00Ясно и безоблачно+24°C85 %754 мм2.1 м/с5 %
    09:00Практически безоблачно+28°C63 %756 мм2.5 м/с5 %
    12:00Небольшая облачность+31°C46 %755 мм4.7 м/с5 %
    15:00Небольшая облачность+32°C44 %753 мм3.3 м/с5 %
    18:00Ясно и безоблачно+29°C68 %753 мм2.1 м/с5 %
    21:00Ясно и безоблачно+27°C76 %754 мм1.6 м/с5 %
  • 20июня
    Четверг
    +23°
    +33°
    Ясно и безоблачно
    ВремяПогодаТемператураВлажностьДавлениеВетер, м/сВероятность осадков
    00:00Ясно и безоблачно+25°C83 %754 мм1.5 м/с5 %
    03:00Ясно и безоблачно+24°C80 %753 мм1.4 м/с2 %
    06:00Ясно и безоблачно+23°C84 %754 мм2.3 м/с2 %
    09:00Ясно и безоблачно+29°C66 %755 мм2.8 м/с3 %
    12:00Практически безоблачно+31°C48 %754 мм4.8 м/с7 %
    15:00Ясно и безоблачно+33°C45 %753 мм3.4 м/с3 %
    18:00Ясно и безоблачно+29°C66 %753 мм2.4 м/с4 %
    21:00Облачно с прояснениями+28°C73 %754 мм1.6 м/с5 %
  • 21июня
    Пятница
    +23°
    +33°
    Облачно с прояснениями
    ВремяПогодаТемператураВлажностьДавлениеВетер, м/сВероятность осадков
    00:00Практически безоблачно+26°C76 %754 мм2.6 м/с4 %
    03:00Практически безоблачно+25°C80 %753 мм1.6 м/с7 %
    06:00Практически безоблачно+24°C83 %753 мм2.4 м/с9 %
    09:00Облачно с прояснениями+29°C63 %755 мм3.7 м/с15 %
    12:00Облачно с прояснениями+31°C48 %754 мм4.9 м/с6 %
    15:00Облачно с прояснениями+32°C43 %753 мм3.6 м/с5 %
    18:00Небольшая облачность+29°C63 %753 мм2.0 м/с4 %
    21:00Практически безоблачно+28°C67 %754 мм1.8 м/с3 %
  • 22июня
    Суббота
    +22°
    +32°
    Ясно и безоблачно
    ВремяПогодаТемператураВлажностьДавлениеВетер, м/сВероятность осадков
    00:00Практически безоблачно+26°C71 %754 мм2.4 м/с10 %
    03:00Ясно и безоблачно+24°C79 %754 мм1.8 м/с10 %
    06:00Ясно и безоблачно+23°C81 %754 мм2.1 м/с5 %
    09:00Ясно и безоблачно+28°C60 %756 мм3.1 м/с5 %
    12:00Ясно и безоблачно+31°C49 %755 мм4.1 м/с8 %
    15:00Ясно и безоблачно+32°C44 %753 мм2.9 м/с5 %
    18:00Ясно и безоблачно+29°C63 %753 мм2.6 м/с5 %
    21:00Ясно и безоблачно+27°C74 %754 мм2.0 м/с3 %
  • 23июня
    Воскресенье
    +24°
    +33°
    Облачно с прояснениями
    ВремяПогодаТемператураВлажностьДавлениеВетер, м/сВероятность осадков
    00:00Ясно и безоблачно+25°C78 %754 мм1.4 м/с21 %
    03:00Практически безоблачно+24°C83 %754 мм0.9 м/с23 %
    06:00Ясно и безоблачно+23°C88 %754 мм1.5 м/с12 %
    09:00Практически безоблачно+29°C58 %756 мм2.9 м/с18 %
    12:00Облачно с прояснениями+32°C44 %755 мм4.9 м/с32 %
    15:00Облачно с прояснениями+33°C42 %753 мм3.5 м/с20 %
    18:00Облачно с прояснениями+30°C61 %753 мм2.7 м/с3 %
    21:00Практически безоблачно+29°C61 %754 мм2.8 м/с7 %
Мы используем cookies
Соглашаюсь